Time;durP1;ratioP1;P1;durP2;ratioP2;P2;SDS_P1;SDS_P2;PMS_P1;PMS_P2;Temp;Humidity;BMP_temperature;BMP_pressure;BME280_temperature;BME280_humidity;BME280_pressure;Samples;Min_cycle;Max_cycle;Signal;HPM_P1;HPM_P2
2023/09/25 00:00:36;;;;;;;4.90;3.30;;;;;;;15.59;61.45;101388.31;5053453;27;96844;-80
2023/09/25 00:03:03;;;;;;;5.95;3.28;;;;;;;15.49;61.61;101387.81;5018230;27;101412;-80
2023/09/25 00:05:30;;;;;;;5.07;3.00;;;;;;;15.69;61.34;101402.13;5053056;27;97606;-80
2023/09/25 00:07:56;;;;;;;9.23;3.67;;;;;;;15.64;61.29;101396.97;5035479;27;97525;-80
2023/09/25 00:10:22;;;;;;;4.93;3.60;;;;;;;15.62;61.13;101377.66;5054081;27;96871;-80
2023/09/25 00:12:47;;;;;;;3.78;3.15;;;;;;;15.78;60.78;101383.25;5052488;27;97437;-81
2023/09/25 00:15:13;;;;;;;4.68;3.53;;;;;;;15.84;61.09;101397.09;5048806;27;98008;-80
2023/09/25 00:17:40;;;;;;;5.13;3.88;;;;;;;15.76;60.70;101390.38;5018142;27;96874;-80
2023/09/25 00:20:10;;;;;;;4.10;3.00;;;;;;;15.70;60.63;101372.94;5035296;27;97290;-80
2023/09/25 00:22:39;;;;;;;7.10;3.53;;;;;;;15.75;60.52;101375.41;5035343;27;101061;-81
2023/09/25 00:25:05;;;;;;;5.05;3.70;;;;;;;15.80;60.39;101384.91;5052566;27;97358;-80
2023/09/25 00:27:34;;;;;;;4.90;3.53;;;;;;;15.76;60.63;101398.31;5021941;27;96912;-81
2023/09/25 00:30:00;;;;;;;5.80;3.55;;;;;;;15.78;60.30;101385.88;5032569;27;97292;-80
2023/09/25 00:32:27;;;;;;;4.25;3.63;;;;;;;15.75;60.53;101381.56;5034566;27;97449;-81
2023/09/25 00:34:53;;;;;;;3.88;3.47;;;;;;;15.90;60.62;101381.91;5052705;27;98506;-80
2023/09/25 00:37:19;;;;;;;5.07;3.30;;;;;;;15.79;60.40;101367.28;5051856;27;97248;-81
2023/09/25 00:39:45;;;;;;;7.32;3.55;;;;;;;15.77;60.55;101381.53;5035909;27;96948;-78
2023/09/25 00:42:11;;;;;;;5.03;4.15;;;;;;;15.59;60.42;101356.56;5051946;27;97971;-78
2023/09/25 00:44:37;;;;;;;10.02;3.67;;;;;;;15.79;60.24;101366.41;5032242;28;101345;-80
2023/09/25 00:47:04;;;;;;;5.40;3.70;;;;;;;15.66;60.72;101370.44;5037550;27;96771;-78
2023/09/25 00:49:30;;;;;;;7.05;3.65;;;;;;;15.56;60.45;101347.00;5028027;28;96856;-79
2023/09/25 00:51:57;;;;;;;7.07;3.88;;;;;;;15.72;60.60;101376.41;5033937;27;101381;-79
2023/09/25 00:54:22;;;;;;;7.13;4.13;;;;;;;15.57;60.67;101361.09;5052467;27;98341;-80
2023/09/25 00:56:49;;;;;;;5.93;3.80;;;;;;;15.73;60.35;101375.47;5051912;27;97062;-81
2023/09/25 00:59:16;;;;;;;7.07;4.18;;;;;;;15.71;60.65;101379.13;5034905;27;96910;-80
2023/09/25 01:01:41;;;;;;;6.13;4.40;;;;;;;15.53;60.76;101360.34;5034562;27;98601;-81
2023/09/25 01:04:08;;;;;;;5.93;4.22;;;;;;;15.60;60.44;101367.13;5051972;27;98571;-79
2023/09/25 01:06:34;;;;;;;6.03;4.43;;;;;;;15.59;60.87;101391.88;5034658;27;97057;-79
2023/09/25 01:08:59;;;;;;;5.93;4.43;;;;;;;15.63;60.77;101398.75;5031745;28;96913;-80
2023/09/25 01:11:25;;;;;;;6.55;4.20;;;;;;;15.52;60.74;101355.94;5016435;27;101752;-79
2023/09/25 01:13:51;;;;;;;11.00;4.72;;;;;;;15.56;60.73;101368.16;5030783;28;101266;-78
2023/09/25 01:16:18;;;;;;;4.63;3.88;;;;;;;15.72;60.74;101402.00;5047667;27;97189;-78
2023/09/25 01:18:43;;;;;;;6.22;4.32;;;;;;;15.34;61.13;101373.38;5051809;27;97123;-81
2023/09/25 01:21:09;;;;;;;7.20;3.97;;;;;;;15.42;60.93;101378.41;5034034;27;101566;-81
2023/09/25 01:23:35;;;;;;;4.63;3.65;;;;;;;15.58;60.82;101402.50;5033966;27;101817;-81
2023/09/25 01:26:01;;;;;;;7.35;4.40;;;;;;;15.62;61.01;101404.97;5034488;27;97103;-81
2023/09/25 01:28:27;;;;;;;7.35;4.95;;;;;;;15.54;61.33;101408.84;5032523;27;96889;-81
2023/09/25 01:30:54;;;;;;;4.95;4.38;;;;;;;15.62;60.95;101401.47;5032601;27;98106;-81
2023/09/25 01:33:19;;;;;;;7.55;4.18;;;;;;;15.60;60.87;101390.06;5031058;27;97919;-78
2023/09/25 01:35:45;;;;;;;7.10;4.30;;;;;;;15.66;60.93;101404.84;5033788;27;96823;-81
2023/09/25 01:38:10;;;;;;;4.78;3.65;;;;;;;15.67;60.99;101396.84;5031273;28;97100;-81
2023/09/25 01:40:36;;;;;;;7.65;3.85;;;;;;;15.61;60.74;101379.41;5049377;27;98495;-81
2023/09/25 01:43:02;;;;;;;6.20;4.22;;;;;;;15.73;60.68;101387.84;5015565;27;101374;-81
2023/09/25 01:45:28;;;;;;;5.80;4.20;;;;;;;15.67;60.86;101395.97;5032437;27;96867;-78
2023/09/25 01:47:54;;;;;;;8.02;4.53;;;;;;;15.71;60.95;101381.75;5034154;27;97042;-81
2023/09/25 01:50:24;;;;;;;7.50;4.43;;;;;;;15.71;60.78;101371.19;5015782;27;100668;-80
2023/09/25 01:52:53;;;;;;;8.63;4.10;;;;;;;15.76;60.81;101385.94;5013642;28;101738;-81
2023/09/25 01:55:19;;;;;;;10.15;4.15;;;;;;;15.64;60.85;101373.16;5032721;27;97223;-81
2023/09/25 01:57:45;;;;;;;6.90;4.93;;;;;;;15.55;60.93;101366.41;5034104;27;98403;-81
2023/09/25 02:00:12;;;;;;;8.05;4.40;;;;;;;15.56;60.95;101357.59;5034098;27;101209;-81
2023/09/25 02:02:41;;;;;;;5.20;3.65;;;;;;;15.61;61.26;101360.03;5030943;27;99016;-81
2023/09/25 02:05:07;;;;;;;5.80;4.30;;;;;;;15.79;60.78;101380.50;5033783;27;96762;-81
2023/09/25 02:07:33;;;;;;;5.30;4.47;;;;;;;15.80;60.82;101373.47;5015893;27;97605;-81
2023/09/25 02:09:59;;;;;;;5.90;3.40;;;;;;;15.84;60.94;101359.16;5045869;27;98027;-81
2023/09/25 02:12:25;;;;;;;6.65;4.60;;;;;;;15.82;60.84;101359.25;5037635;27;101246;-81
2023/09/25 02:14:52;;;;;;;6.35;4.32;;;;;;;15.77;60.70;101352.41;5029293;27;97456;-80
2023/09/25 02:17:18;;;;;;;6.95;4.38;;;;;;;15.78;60.60;101359.41;5044990;27;97786;-81
2023/09/25 02:19:44;;;;;;;5.35;4.18;;;;;;;15.76;61.00;101372.69;5049821;27;98403;-81
2023/09/25 02:22:10;;;;;;;7.05;4.50;;;;;;;15.80;60.81;101358.44;5033516;27;101131;-81
2023/09/25 02:24:37;;;;;;;9.18;4.82;;;;;;;15.75;60.84;101360.38;5033836;27;97401;-81
2023/09/25 02:27:02;;;;;;;5.50;4.75;;;;;;;15.55;60.61;101328.50;5013234;28;97170;-80
2023/09/25 02:29:29;;;;;;;6.18;4.72;;;;;;;15.68;60.77;101350.97;5033210;27;101043;-82
2023/09/25 02:31:56;;;;;;;7.47;4.55;;;;;;;15.63;60.90;101334.38;5033303;27;98096;-84
2023/09/25 02:34:21;;;;;;;8.27;5.22;;;;;;;15.49;61.05;101324.31;5033950;27;96829;-82
2023/09/25 02:36:47;;;;;;;5.50;4.30;;;;;;;15.70;60.78;101335.88;5050156;27;97046;-80
2023/09/25 02:39:13;;;;;;;6.57;4.75;;;;;;;15.77;60.87;101341.81;5049759;27;100804;-81
2023/09/25 02:41:40;;;;;;;5.57;4.15;;;;;;;15.87;60.53;101332.56;5049685;27;97830;-81
2023/09/25 02:44:05;;;;;;;7.40;4.72;;;;;;;15.92;60.46;101340.34;5033294;27;97763;-81
2023/09/25 02:46:31;;;;;;;5.38;4.60;;;;;;;15.95;60.53;101341.06;5032628;27;97151;-81
2023/09/25 02:48:57;;;;;;;5.57;4.38;;;;;;;16.00;60.30;101332.97;5015542;27;101699;-82
2023/09/25 02:51:22;;;;;;;5.65;4.95;;;;;;;15.98;60.20;101327.72;5012584;28;100498;-81
2023/09/25 02:53:48;;;;;;;8.25;5.22;;;;;;;15.92;60.57;101338.56;5031429;27;97277;-81
2023/09/25 02:56:13;;;;;;;7.65;4.68;;;;;;;15.94;60.43;101330.53;5030028;28;96943;-81
2023/09/25 02:58:39;;;;;;;6.30;4.93;;;;;;;15.82;60.51;101314.25;5029881;27;101513;-81
2023/09/25 03:01:04;;;;;;;6.30;4.05;;;;;;;15.89;60.53;101316.63;5029757;28;101382;-82
2023/09/25 03:03:30;;;;;;;6.55;4.32;;;;;;;15.93;60.66;101319.09;5028756;27;96802;-81
2023/09/25 03:05:56;;;;;;;7.63;4.38;;;;;;;15.79;60.52;101316.97;5029991;27;97247;-81
2023/09/25 03:08:21;;;;;;;6.63;4.18;;;;;;;15.82;60.48;101313.34;5014740;27;101588;-81
2023/09/25 03:10:47;;;;;;;8.82;4.80;;;;;;;15.67;60.42;101298.06;5033231;27;99773;-81
2023/09/25 03:13:13;;;;;;;8.18;4.38;;;;;;;15.74;60.56;101289.00;5049304;27;96834;-81
2023/09/25 03:15:39;;;;;;;6.03;4.93;;;;;;;15.94;60.44;101319.94;5032802;27;97026;-81
2023/09/25 03:18:05;;;;;;;8.65;4.90;;;;;;;15.82;60.35;101290.41;5031949;27;101970;-81
2023/09/25 03:20:30;;;;;;;8.02;5.18;;;;;;;15.89;60.49;101303.41;5049010;27;98110;-81
2023/09/25 03:22:56;;;;;;;5.93;4.57;;;;;;;15.95;60.55;101305.78;5030897;27;97161;-81
2023/09/25 03:25:22;;;;;;;5.63;4.85;;;;;;;15.77;60.44;101273.84;5050474;27;98353;-81
2023/09/25 03:27:49;;;;;;;4.93;4.43;;;;;;;16.02;60.51;101321.34;5029938;27;100917;-81
2023/09/25 03:30:15;;;;;;;7.80;4.45;;;;;;;16.04;60.86;101306.28;5032987;27;101089;-81
2023/09/25 03:32:42;;;;;;;6.85;4.75;;;;;;;16.07;60.51;101307.94;5029831;27;97278;-81
2023/09/25 03:35:08;;;;;;;7.43;5.25;;;;;;;16.01;60.57;101302.91;5033673;27;96934;-81
2023/09/25 03:37:34;;;;;;;6.50;4.63;;;;;;;15.95;60.33;101293.41;5048622;27;101555;-81
2023/09/25 03:39:59;;;;;;;6.95;4.32;;;;;;;16.07;60.29;101319.38;5049891;27;101198;-81
2023/09/25 03:42:25;;;;;;;6.80;4.95;;;;;;;16.06;60.69;101325.63;5032114;27;97158;-81
2023/09/25 03:44:51;;;;;;;8.50;4.55;;;;;;;16.06;60.93;101319.47;5030067;27;97254;-81
2023/09/25 03:47:18;;;;;;;6.63;4.47;;;;;;;16.11;60.88;101321.91;5018946;27;101548;-81
2023/09/25 03:49:44;;;;;;;7.03;4.60;;;;;;;16.18;60.90;101331.34;5032373;27;102332;-81
2023/09/25 03:52:10;;;;;;;6.25;4.18;;;;;;;16.19;60.96;101331.25;5049537;27;96797;-81
2023/09/25 03:54:36;;;;;;;7.47;4.15;;;;;;;16.14;61.16;101316.47;5032945;27;97384;-81
2023/09/25 03:57:01;;;;;;;7.28;4.43;;;;;;;16.06;61.36;101322.97;5048179;27;98624;-81
2023/09/25 03:59:27;;;;;;;8.48;4.68;;;;;;;16.13;61.85;101334.16;5050341;27;97547;-81
2023/09/25 04:01:52;;;;;;;9.02;4.38;;;;;;;16.07;61.77;101329.13;5031989;27;96997;-81
2023/09/25 04:04:18;;;;;;;6.85;5.20;;;;;;;16.12;62.04;101340.41;5031291;27;97526;-81
2023/09/25 04:06:43;;;;;;;6.25;4.60;;;;;;;16.08;62.00;101336.13;5012578;27;101608;-81
2023/09/25 04:09:10;;;;;;;6.80;4.90;;;;;;;16.07;62.27;101345.88;5032274;27;101673;-81
2023/09/25 04:11:35;;;;;;;13.63;4.78;;;;;;;16.05;62.71;101345.06;5032199;27;97292;-81
2023/09/25 04:14:02;;;;;;;8.20;6.72;;;;;;;16.04;62.59;101340.69;5029088;28;97320;-81
2023/09/25 04:16:33;;;;;;;7.38;5.30;;;;;;;15.97;62.56;101339.22;5043169;27;99995;-81
2023/09/25 04:18:59;;;;;;;7.20;5.28;;;;;;;15.90;62.62;101334.25;5024952;27;98546;-81
2023/09/25 04:21:24;;;;;;;7.53;4.63;;;;;;;15.93;62.58;101350.84;5032983;27;97327;-81
2023/09/25 04:23:50;;;;;;;7.20;4.95;;;;;;;15.83;62.71;101334.47;5032647;27;96903;-81
2023/09/25 04:26:16;;;;;;;5.50;4.85;;;;;;;15.91;62.70;101347.44;5052356;27;97523;-81
2023/09/25 04:28:42;;;;;;;7.97;5.55;;;;;;;15.80;62.81;101331.09;5052844;27;97446;-81
2023/09/25 04:31:09;;;;;;;9.32;4.80;;;;;;;15.77;62.69;101342.66;5014299;27;97152;-81
2023/09/25 04:33:35;;;;;;;7.45;4.95;;;;;;;15.83;62.69;101353.03;5029277;27;97381;-81
2023/09/25 04:36:01;;;;;;;8.90;5.07;;;;;;;15.77;62.82;101357.69;5034488;27;101735;-81
2023/09/25 04:38:30;;;;;;;10.05;4.78;;;;;;;15.75;63.22;101347.16;5034986;27;101292;-82
2023/09/25 04:40:56;;;;;;;7.93;5.20;;;;;;;15.74;63.25;101352.53;5035122;27;96958;-82
2023/09/25 04:43:22;;;;;;;7.18;4.55;;;;;;;15.61;63.00;101336.22;5035293;27;96862;-83
2023/09/25 04:45:51;;;;;;;6.68;4.40;;;;;;;15.62;63.35;101337.97;5035027;27;98448;-80
2023/09/25 04:48:20;;;;;;;8.05;5.40;;;;;;;15.59;62.94;101327.47;5052513;27;97394;-82
2023/09/25 04:50:45;;;;;;;7.15;4.80;;;;;;;15.73;63.03;101345.50;5034302;27;96754;-83
2023/09/25 04:53:11;;;;;;;10.60;5.72;;;;;;;15.59;63.50;101325.69;5017006;27;97409;-83
2023/09/25 04:55:40;;;;;;;8.68;5.00;;;;;;;15.69;63.46;101349.19;5034997;27;97536;-83
2023/09/25 04:58:06;;;;;;;8.68;5.93;;;;;;;15.67;63.33;101345.69;5035407;27;97408;-82
2023/09/25 05:00:32;;;;;;;13.10;5.93;;;;;;;15.67;63.42;101351.84;5013061;27;97080;-82
2023/09/25 05:02:59;;;;;;;7.68;5.55;;;;;;;15.56;63.29;101338.16;5042708;27;96819;-83
2023/09/25 05:05:25;;;;;;;7.40;6.00;;;;;;;15.67;63.45;101351.00;5051038;27;97385;-78
2023/09/25 05:07:54;;;;;;;6.35;5.75;;;;;;;15.69;63.21;101350.03;5030057;27;101793;-84
2023/09/25 05:10:25;;;;;;;6.50;5.55;;;;;;;15.68;63.31;101353.63;5041772;27;96862;-81
2023/09/25 05:12:51;;;;;;;8.63;5.70;;;;;;;15.65;63.29;101358.13;5052029;27;97188;-80
2023/09/25 05:15:17;;;;;;;7.72;6.63;;;;;;;15.66;63.51;101350.13;5052258;27;97495;-79
2023/09/25 05:17:43;;;;;;;6.63;5.68;;;;;;;15.48;63.50;101311.16;5030575;28;101515;-79
2023/09/25 05:20:18;;;;;;;7.07;6.00;;;;;;;15.71;63.53;101350.84;5034168;27;97405;-79
2023/09/25 05:22:52;;;;;;;8.88;5.90;;;;;;;15.68;63.47;101345.69;5051417;27;97453;-79
2023/09/25 05:25:18;;;;;;;10.68;6.60;;;;;;;15.65;63.55;101334.31;5052545;27;97676;-79
2023/09/25 05:27:49;;;;;;;8.35;6.03;;;;;;;15.70;63.26;101335.88;5051209;27;97634;-79
2023/09/25 05:30:17;;;;;;;9.95;7.30;;;;;;;15.66;63.63;101328.97;5046183;27;97343;-79
2023/09/25 05:32:48;;;;;;;10.63;9.02;;;;;;;15.83;63.52;101355.66;5048156;27;96958;-79
2023/09/25 05:35:14;;;;;;;10.98;9.20;;;;;;;15.84;63.39;101357.38;5051623;27;101351;-79
2023/09/25 05:37:42;;;;;;;16.45;9.25;;;;;;;15.86;63.41;101349.38;5033245;27;101215;-79
2023/09/25 05:40:10;;;;;;;10.85;9.93;;;;;;;15.72;63.05;101320.81;5031733;27;97486;-79
2023/09/25 05:42:40;;;;;;;10.27;9.38;;;;;;;15.94;63.10;101346.41;5047671;27;96848;-80
2023/09/25 05:45:06;;;;;;;11.25;8.05;;;;;;;15.99;63.03;101341.81;5033986;27;100620;-82
2023/09/25 05:47:33;;;;;;;10.60;9.60;;;;;;;15.88;63.31;101321.03;5040598;27;98502;-82
2023/09/25 05:49:59;;;;;;;8.52;7.47;;;;;;;15.85;63.13;101300.00;5052311;27;96870;-80
2023/09/25 05:52:24;;;;;;;10.05;9.05;;;;;;;16.08;63.10;101330.84;5031410;27;96826;-80
2023/09/25 05:54:51;;;;;;;12.68;9.85;;;;;;;16.15;62.88;101321.72;5034451;27;101464;-80
2023/09/25 05:57:16;;;;;;;11.77;10.07;;;;;;;16.17;62.57;101326.94;5035503;27;98284;-80
2023/09/25 05:59:43;;;;;;;11.50;10.35;;;;;;;16.16;62.73;101319.94;5050440;27;96821;-80
2023/09/25 06:02:08;;;;;;;19.10;9.98;;;;;;;16.12;62.74;101300.66;5043448;27;96805;-80
2023/09/25 06:04:37;;;;;;;10.43;9.43;;;;;;;16.42;62.56;101338.25;5034685;27;100227;-80
2023/09/25 06:07:04;;;;;;;10.80;9.88;;;;;;;16.42;61.67;101311.75;5026086;27;101613;-80
2023/09/25 06:09:30;;;;;;;11.48;10.48;;;;;;;16.70;61.38;101340.59;5013810;27;96929;-81
2023/09/25 06:11:56;;;;;;;11.35;9.65;;;;;;;16.93;60.87;101328.16;5029452;27;97399;-75
2023/09/25 06:14:22;;;;;;;11.73;8.15;;;;;;;17.16;60.45;101327.97;5051735;27;97446;-75
2023/09/25 06:16:51;;;;;;;17.50;8.60;;;;;;;17.33;60.26;101321.88;5033303;27;101297;-75
2023/09/25 06:19:18;;;;;;;9.60;8.38;;;;;;;17.70;59.34;101337.88;5050120;27;97433;-75
2023/09/25 06:21:44;;;;;;;10.32;8.70;;;;;;;18.00;59.16;101323.13;5049073;27;96969;-74
2023/09/25 06:24:11;;;;;;;10.65;8.85;;;;;;;18.32;57.67;101308.25;5048746;27;97345;-73
2023/09/25 06:26:41;;;;;;;9.20;8.13;;;;;;;18.77;56.65;101314.81;5013160;28;101000;-74
2023/09/25 06:29:08;;;;;;;10.13;8.40;;;;;;;19.15;55.52;101322.53;5015076;27;97006;-74
2023/09/25 06:31:36;;;;;;;9.07;8.15;;;;;;;19.36;54.98;101301.03;5032784;27;96899;-73
2023/09/25 06:34:04;;;;;;;9.65;8.75;;;;;;;20.38;52.54;101290.75;5051249;27;99507;-75
2023/09/25 06:36:31;;;;;;;16.23;8.52;;;;;;;20.89;51.81;101333.97;5033670;27;99559;-75
2023/09/25 06:38:57;;;;;;;11.98;7.95;;;;;;;21.57;49.99;101319.91;5052487;27;97128;-75
2023/09/25 06:41:23;;;;;;;10.93;9.18;;;;;;;23.22;46.72;101321.25;5021151;28;98855;-76
2023/09/25 06:43:48;;;;;;;13.15;9.82;;;;;;;24.57;43.14;101297.84;5047340;27;98052;-75
2023/09/25 06:46:14;;;;;;;11.85;10.52;;;;;;;24.39;43.76;101319.72;5050640;27;97482;-74
2023/09/25 06:48:39;;;;;;;12.90;10.43;;;;;;;24.74;42.92;101316.16;5050137;27;97380;-76
2023/09/25 06:51:05;;;;;;;17.25;12.10;;;;;;;26.70;39.63;101307.28;5030485;27;97299;-76
2023/09/25 06:53:31;;;;;;;11.07;9.18;;;;;;;25.50;40.96;101317.28;5031015;27;101618;-77
2023/09/25 06:55:57;;;;;;;14.48;10.60;;;;;;;24.09;43.70;101327.44;5050561;27;97313;-79
2023/09/25 06:58:23;;;;;;;15.50;13.15;;;;;;;23.13;45.27;101305.84;5031263;27;96790;-75
2023/09/25 07:00:50;;;;;;;15.35;14.10;;;;;;;22.54;46.63;101341.13;5051272;27;96911;-76
2023/09/25 07:03:16;;;;;;;16.00;12.82;;;;;;;21.79;48.25;101322.06;5049973;27;97475;-77
2023/09/25 07:05:42;;;;;;;13.77;12.48;;;;;;;21.45;49.10;101350.94;5050256;27;97540;-75
2023/09/25 07:08:08;;;;;;;16.65;12.93;;;;;;;21.55;48.93;101324.50;5048447;27;97967;-74
2023/09/25 07:10:33;;;;;;;16.13;14.63;;;;;;;21.86;48.15;101342.91;5033799;27;97026;-74
2023/09/25 07:12:59;;;;;;;15.15;11.60;;;;;;;22.57;46.99;101336.44;5032865;27;101217;-75
2023/09/25 07:15:25;;;;;;;12.82;11.55;;;;;;;22.94;46.09;101341.03;5050333;27;97433;-74
2023/09/25 07:17:51;;;;;;;13.95;12.65;;;;;;;23.32;45.05;101332.16;5050785;27;96775;-74
2023/09/25 07:20:16;;;;;;;16.35;14.95;;;;;;;23.65;44.45;101340.44;5049959;27;96994;-74
2023/09/25 07:22:42;;;;;;;15.27;13.80;;;;;;;24.22;43.33;101349.66;5024595;27;98279;-75
2023/09/25 07:25:09;;;;;;;15.75;14.07;;;;;;;26.66;39.15;101330.09;5050239;27;97406;-77
2023/09/25 07:27:35;;;;;;;13.65;12.63;;;;;;;27.15;38.47;101341.13;5033294;27;97137;-75
2023/09/25 07:30:05;;;;;;;18.90;17.25;;;;;;;27.30;37.83;101318.25;5050144;27;96942;-75
2023/09/25 07:32:30;;;;;;;14.87;13.67;;;;;;;31.90;31.38;101326.97;5047231;27;97599;-76
2023/09/25 07:34:57;;;;;;;15.98;14.68;;;;;;;34.55;28.18;101336.59;5018430;27;101477;-78
2023/09/25 07:37:22;;;;;;;5.68;3.38;;;;;;;33.60;28.93;101320.59;5047636;27;97305;-75
2023/09/25 07:39:48;;;;;;;5.82;4.53;;;;;;;33.18;28.62;101321.78;5050062;27;96871;-77
2023/09/25 07:42:13;;;;;;;9.18;8.35;;;;;;;36.12;25.59;101319.94;5045689;27;98098;-77
2023/09/25 07:44:39;;;;;;;4.78;3.53;;;;;;;37.52;24.60;101306.13;5021085;27;100748;-76
2023/09/25 07:47:10;;;;;;;7.97;4.43;;;;;;;37.02;24.73;101315.59;5047063;27;96794;-76
2023/09/25 07:49:40;;;;;;;8.20;7.60;;;;;;;37.62;23.98;101329.56;5040969;27;96821;-76
2023/09/25 07:52:15;;;;;;;;;;;;;;;37.80;23.52;101324.34;5047888;27;98542;-76
2023/09/25 07:54:51;;;;;;;7.00;6.40;;;;;;;38.56;22.70;101331.38;5045084;27;98062;-78
2023/09/25 07:57:19;;;;;;;5.90;3.30;;;;;;;38.48;23.13;101326.94;5029853;27;97308;-78
2023/09/25 07:59:45;;;;;;;11.05;9.05;;;;;;;39.62;21.68;101303.56;5030152;27;97182;-77
2023/09/25 08:02:12;;;;;;;5.68;4.75;;;;;;;37.02;23.46;101321.91;5050661;27;98367;-76
2023/09/25 08:04:37;;;;;;;9.90;7.00;;;;;;;35.35;25.72;101324.13;5035873;27;98036;-76
2023/09/25 08:07:03;;;;;;;11.02;7.88;;;;;;;38.55;22.64;101318.72;5046343;27;96736;-77
2023/09/25 08:09:29;;;;;;;13.57;12.07;;;;;;;39.73;21.44;101299.28;5050535;27;97350;-76
2023/09/25 08:11:55;;;;;;;14.77;13.55;;;;;;;41.74;20.18;101319.88;5052069;27;98634;-77
2023/09/25 08:14:20;;;;;;;21.20;19.70;;;;;;;41.35;20.35;101305.59;5048168;27;98639;-76
2023/09/25 08:16:46;;;;;;;10.98;10.13;;;;;;;43.22;18.84;101299.69;5053482;27;97534;-78
2023/09/25 08:19:12;;;;;;;14.70;13.50;;;;;;;43.17;18.36;101308.69;5052078;27;96922;-78
2023/09/25 08:21:37;;;;;;;32.63;29.42;;;;;;;44.53;17.53;101301.44;5052787;27;97564;-77
2023/09/25 08:24:03;;;;;;;3.45;3.10;;;;;;;45.18;17.38;101300.69;5025865;27;101140;-81
2023/09/25 08:26:29;;;;;;;5.55;3.75;;;;;;;45.79;16.87;101295.78;5049464;27;96895;-82
2023/09/25 08:28:57;;;;;;;4.93;3.47;;;;;;;47.05;16.38;101304.41;5049257;27;96845;-83
2023/09/25 08:31:23;;;;;;;6.45;3.40;;;;;;;47.51;15.81;101296.19;5052123;27;97524;-83
2023/09/25 08:33:49;;;;;;;5.40;3.03;;;;;;;47.72;15.62;101285.09;5049685;27;97887;-83
2023/09/25 08:36:15;;;;;;;6.32;3.20;;;;;;;47.83;15.24;101292.34;5046874;27;96892;-83
2023/09/25 08:38:40;;;;;;;5.38;3.25;;;;;;;48.19;15.15;101289.53;5047542;27;97313;-83
2023/09/25 08:41:06;;;;;;;3.92;2.95;;;;;;;48.36;15.03;101292.03;5047751;27;97504;-82
2023/09/25 08:43:32;;;;;;;4.97;3.20;;;;;;;48.10;15.04;101277.28;5026070;27;97700;-82
2023/09/25 08:45:58;;;;;;;4.20;3.33;;;;;;;48.82;14.74;101269.59;5045483;27;96789;-83
2023/09/25 08:48:24;;;;;;;5.72;4.00;;;;;;;49.40;14.54;101270.69;5030593;27;97353;-83
2023/09/25 08:50:50;;;;;;;4.45;3.15;;;;;;;49.77;13.77;101266.47;5045318;27;97863;-83
2023/09/25 08:53:16;;;;;;;4.43;3.33;;;;;;;50.29;13.92;101266.84;5041003;27;98883;-83
2023/09/25 08:55:45;;;;;;;4.72;3.33;;;;;;;49.67;13.73;101269.38;5032281;27;97503;-83
2023/09/25 08:58:10;;;;;;;3.70;3.40;;;;;;;49.17;14.11;101254.66;5033863;27;97382;-83
2023/09/25 09:00:38;;;;;;;6.03;2.80;;;;;;;46.88;16.05;101254.59;5041536;27;98097;-86
2023/09/25 09:03:04;;;;;;;4.82;3.60;;;;;;;46.36;16.36;101255.44;5041469;27;97449;-81
2023/09/25 09:05:30;;;;;;;4.38;3.35;;;;;;;44.71;17.45;101266.00;5042821;27;97929;-83
2023/09/25 09:08:03;;;;;;;3.85;3.10;;;;;;;44.35;17.61;101261.91;5035691;27;97164;-83
2023/09/25 09:10:33;;;;;;;6.70;3.42;;;;;;;44.54;17.45;101256.03;5005126;27;101512;-83
2023/09/25 09:12:59;;;;;;;3.85;3.08;;;;;;;46.13;16.23;101256.66;5030189;27;97382;-83
2023/09/25 09:15:28;;;;;;;3.75;2.65;;;;;;;40.76;20.62;101262.25;5065449;27;96749;-83
2023/09/25 09:21:44;;;;;;;37.17;34.30;;;;;;;34.14;27.91;101249.75;5039959;27;97651;-82
2023/09/25 09:24:32;;;;;;;7.63;2.88;;;;;;;32.53;30.46;101265.72;5043736;27;97363;-82
2023/09/25 09:26:57;;;;;;;9.40;3.08;;;;;;;30.60;32.95;101265.75;5031611;27;97141;-81
2023/09/25 09:29:23;;;;;;;3.25;2.80;;;;;;;29.39;34.79;101269.88;5039114;27;97506;-82
2023/09/25 09:31:52;;;;;;;2.97;2.40;;;;;;;28.89;35.88;101254.03;5014548;27;101209;-81
2023/09/25 09:34:22;;;;;;;30.23;28.02;;;;;;;28.69;36.73;101255.13;5030227;27;101369;-79
2023/09/25 09:36:51;;;;;;;5.25;4.35;;;;;;;28.04;37.56;101260.31;5051413;27;97032;-77
2023/09/25 09:39:34;;;;;;;13.90;12.73;;;;;;;27.14;39.26;101232.50;5051191;27;97486;-79
2023/09/25 09:42:05;;;;;;;17.02;15.65;;;;;;;27.62;38.63;101250.63;5036398;27;101741;-77
2023/09/25 09:44:32;;;;;;;16.30;15.07;;;;;;;27.84;38.01;101245.97;5032254;27;97819;-77
2023/09/25 09:47:02;;;;;;;3.58;2.30;;;;;;;28.00;38.07;101267.84;5052943;27;96846;-77
2023/09/25 09:49:30;;;;;;;5.82;3.95;;;;;;;27.51;38.97;101253.44;5050420;27;96729;-77
2023/09/25 09:51:57;;;;;;;7.15;2.90;;;;;;;28.37;37.99;101261.72;5032524;27;101308;-76
2023/09/25 09:54:23;;;;;;;4.88;3.10;;;;;;;29.55;36.38;101255.66;5031118;28;97376;-77
2023/09/25 09:56:49;;;;;;;4.82;3.40;;;;;;;31.60;32.97;101263.31;5048432;27;96886;-78
2023/09/25 09:59:16;;;;;;;5.57;3.13;;;;;;;33.39;30.29;101264.03;5034143;27;96871;-76
2023/09/25 10:01:46;;;;;;;4.20;2.35;;;;;;;33.92;29.97;101250.59;5051843;27;97779;-78
2023/09/25 10:04:12;;;;;;;6.72;3.55;;;;;;;32.51;31.83;101258.75;5048771;27;97967;-78
2023/09/25 10:06:49;;;;;;;5.28;4.00;;;;;;;31.66;32.94;101246.34;5051951;27;96763;-78
2023/09/25 10:09:15;;;;;;;5.43;3.40;;;;;;;30.16;34.68;101241.34;5049806;27;97304;-77
2023/09/25 10:11:48;;;;;;;8.48;2.78;;;;;;;30.06;35.01;101261.44;5051623;27;97466;-78
2023/09/25 10:14:19;;;;;;;5.32;2.78;;;;;;;29.79;35.55;101255.09;5042891;27;99079;-76
2023/09/25 10:17:14;;;;;;;8.07;3.80;;;;;;;28.60;37.24;101254.16;5027792;27;97538;-74
2023/09/25 10:19:40;;;;;;;4.85;2.97;;;;;;;28.20;38.09;101260.59;5028919;27;97044;-75
2023/09/25 10:22:23;;;;;;;9.07;8.27;;;;;;;28.03;38.85;101259.47;5049812;27;97415;-79
2023/09/25 10:24:59;;;;;;;9.98;9.27;;;;;;;28.10;38.99;101251.63;5046112;27;97571;-80
2023/09/25 10:27:26;;;;;;;4.78;2.92;;;;;;;28.26;39.14;101251.06;5048785;27;97313;-79
2023/09/25 10:30:11;;;;;;;7.28;3.05;;;;;;;27.41;39.89;101256.13;5049032;27;97126;-83
2023/09/25 10:32:41;;;;;;;8.48;2.30;;;;;;;26.78;41.29;101234.78;5025387;27;97564;-80
2023/09/25 10:35:35;;;;;;;4.07;2.15;;;;;;;26.36;42.38;101260.88;5032953;27;99268;-79
2023/09/25 10:38:19;;;;;;;4.07;3.42;;;;;;;25.65;43.80;101257.88;5049145;27;97261;-79
2023/09/25 10:40:49;;;;;;;9.05;8.35;;;;;;;24.56;45.80;101264.78;5039197;27;98080;-78
2023/09/25 10:43:17;;;;;;;5.87;2.33;;;;;;;24.50;46.21;101254.53;5024037;27;101321;-79
2023/09/25 10:45:42;;;;;;;5.30;2.30;;;;;;;24.17;46.71;101237.38;5031572;27;101638;-78
2023/09/25 10:48:08;;;;;;;7.68;2.03;;;;;;;24.23;47.21;101256.63;5042836;27;97542;-79
2023/09/25 10:50:34;;;;;;;9.93;2.47;;;;;;;24.16;47.32;101251.72;5024850;27;96870;-79
2023/09/25 10:52:59;;;;;;;5.88;3.03;;;;;;;24.22;47.47;101254.91;5050433;27;97506;-78
2023/09/25 10:55:25;;;;;;;6.82;2.10;;;;;;;24.10;47.62;101243.31;5032617;27;101247;-78
2023/09/25 10:57:52;;;;;;;4.07;2.20;;;;;;;23.83;48.32;101241.75;5050026;27;97016;-78
2023/09/25 11:00:18;;;;;;;2.92;1.95;;;;;;;24.27;47.75;101245.56;5046224;27;97606;-79
2023/09/25 11:02:47;;;;;;;3.10;1.88;;;;;;;24.42;47.29;101246.19;5040929;27;98116;-81
2023/09/25 11:05:12;;;;;;;3.65;2.20;;;;;;;24.62;46.93;101240.16;5024157;27;100913;-81
2023/09/25 11:07:38;;;;;;;4.10;2.50;;;;;;;25.07;46.21;101231.22;5035840;27;98077;-79
2023/09/25 11:10:04;;;;;;;8.05;2.50;;;;;;;25.38;45.30;101215.31;5044625;27;98140;-80
2023/09/25 11:12:33;;;;;;;5.30;2.13;;;;;;;25.29;45.40;101247.34;5026839;27;102455;-79
2023/09/25 11:14:58;;;;;;;4.53;2.15;;;;;;;25.14;45.60;101234.31;5033040;27;97522;-79
2023/09/25 11:17:25;;;;;;;6.38;2.08;;;;;;;25.16;45.89;101237.72;5044038;27;96803;-81
2023/09/25 11:19:53;;;;;;;4.40;2.30;;;;;;;24.54;46.95;101234.53;5023902;27;98011;-80
2023/09/25 11:22:21;;;;;;;2.92;2.13;;;;;;;24.26;47.83;101234.91;5042738;27;101632;-80
2023/09/25 11:24:56;;;;;;;3.50;2.28;;;;;;;24.08;48.50;101234.50;5024638;28;98361;-79